createdAt,value
2022-09-28T00:01:35.508Z,8.40
2022-09-28T00:04:02.392Z,8.40
2022-09-28T00:06:31.166Z,8.40
2022-09-28T00:08:58.539Z,8.40
2022-09-28T00:11:28.094Z,8.40
2022-09-28T00:14:02.140Z,8.50
2022-09-28T00:16:31.675Z,8.50
2022-09-28T00:18:58.887Z,8.50
2022-09-28T00:21:28.950Z,8.50
2022-09-28T00:24:14.909Z,8.60
2022-09-28T00:27:02.820Z,8.60
2022-09-28T00:29:35.028Z,8.60
2022-09-28T00:32:07.147Z,8.70
2022-09-28T00:34:37.013Z,8.70
2022-09-28T00:37:06.005Z,8.70
2022-09-28T00:39:32.618Z,8.70
2022-09-28T00:41:59.695Z,8.70
2022-09-28T00:44:26.228Z,8.70
2022-09-28T00:47:05.830Z,8.70
2022-09-28T00:50:04.674Z,8.70
2022-09-28T00:52:53.569Z,8.70
2022-09-28T00:55:26.574Z,8.60
2022-09-28T00:57:56.778Z,8.60
2022-09-28T01:00:23.821Z,8.50
2022-09-28T01:02:50.689Z,8.50
2022-09-28T01:05:18.234Z,8.50
2022-09-28T01:07:47.227Z,8.50
2022-09-28T01:10:14.852Z,8.40
2022-09-28T01:12:41.433Z,8.30
2022-09-28T01:15:08.637Z,8.30
2022-09-28T01:17:50.058Z,8.30
2022-09-28T01:20:24.222Z,8.30
2022-09-28T01:23:21.721Z,8.30
2022-09-28T01:26:32.644Z,8.40
2022-09-28T01:29:40.790Z,8.40
2022-09-28T01:33:04.587Z,8.50
2022-09-28T01:35:39.853Z,8.50
2022-09-28T01:38:14.131Z,8.50
2022-09-28T01:40:41.603Z,8.50
2022-09-28T01:43:16.883Z,8.50
2022-09-28T01:46:11.314Z,8.50
2022-09-28T01:48:52.423Z,8.50
2022-09-28T01:51:39.697Z,8.50
2022-09-28T01:54:23.632Z,8.40
2022-09-28T01:57:18.653Z,8.50
2022-09-28T02:00:00.346Z,8.40
2022-09-28T02:02:34.798Z,8.40
2022-09-28T02:05:18.386Z,8.40
2022-09-28T02:07:54.636Z,8.40
2022-09-28T02:10:29.369Z,8.40
2022-09-28T02:13:09.083Z,8.40
2022-09-28T02:15:42.645Z,8.40
2022-09-28T02:18:09.970Z,8.40
2022-09-28T02:20:40.692Z,8.40
2022-09-28T02:23:09.125Z,8.30
2022-09-28T02:25:45.632Z,8.30
2022-09-28T02:28:13.572Z,8.30
2022-09-28T02:30:42.806Z,8.30
2022-09-28T02:33:21.747Z,8.30
2022-09-28T02:35:48.413Z,8.30
2022-09-28T02:38:15.177Z,8.30
2022-09-28T02:45:04.890Z,8.40
2022-09-28T02:48:00.678Z,8.40
2022-09-28T02:50:36.773Z,8.30
2022-09-28T02:53:45.782Z,8.30
2022-09-28T02:56:41.046Z,8.30
2022-09-28T02:59:25.630Z,8.30
2022-09-28T03:02:03.755Z,8.30
2022-09-28T03:04:37.226Z,8.30
2022-09-28T03:07:06.683Z,8.30
2022-09-28T03:09:46.910Z,8.30
2022-09-28T03:12:16.312Z,8.20
2022-09-28T03:14:42.957Z,8.30
2022-09-28T03:17:09.509Z,8.30
2022-09-28T03:19:37.014Z,8.30
2022-09-28T03:22:04.059Z,8.20
2022-09-28T03:24:30.613Z,8.30
2022-09-28T03:26:57.171Z,8.30
2022-09-28T03:29:23.953Z,8.30
2022-09-28T03:31:50.576Z,8.20
2022-09-28T03:34:17.230Z,8.30
2022-09-28T03:36:43.908Z,8.20
2022-09-28T03:39:10.603Z,8.10
2022-09-28T03:41:37.266Z,8.20
2022-09-28T03:44:04.237Z,8.20
2022-09-28T03:46:30.860Z,8.20
2022-09-28T03:48:59.204Z,8.30
2022-09-28T03:51:26.240Z,8.20
2022-09-28T03:53:52.829Z,8.30
2022-09-28T03:56:19.446Z,8.30
2022-09-28T03:58:45.996Z,8.30
2022-09-28T04:01:16.811Z,8.30
2022-09-28T04:03:44.667Z,8.30
2022-09-28T04:06:11.736Z,8.30
2022-09-28T04:08:38.387Z,8.30
2022-09-28T04:11:05.336Z,8.20
2022-09-28T04:13:32.147Z,8.20
2022-09-28T04:16:00.922Z,8.30
2022-09-28T04:18:28.622Z,8.20
2022-09-28T04:21:09.228Z,8.20
2022-09-28T04:23:38.156Z,8.30
2022-09-28T04:26:07.515Z,8.30
2022-09-28T04:28:52.863Z,8.30
2022-09-28T04:31:22.530Z,8.30
2022-09-28T04:33:49.395Z,8.30
2022-09-28T04:36:16.006Z,8.30
2022-09-28T04:38:52.667Z,8.30
2022-09-28T04:41:21.154Z,8.30
2022-09-28T04:43:47.866Z,8.30
2022-09-28T04:46:15.069Z,8.30
2022-09-28T04:48:41.982Z,8.30
2022-09-28T04:51:08.586Z,8.40
2022-09-28T04:53:35.241Z,8.40
2022-09-28T04:56:04.584Z,8.40
2022-09-28T04:58:32.071Z,8.40
2022-09-28T05:01:01.601Z,8.40
2022-09-28T05:03:28.520Z,8.40
2022-09-28T05:05:55.082Z,8.40
2022-09-28T05:08:21.707Z,8.40
2022-09-28T05:10:48.496Z,8.40
2022-09-28T05:13:15.188Z,8.40
2022-09-28T05:15:42.606Z,8.30
2022-09-28T05:18:09.392Z,8.30
2022-09-28T05:20:41.089Z,8.30
2022-09-28T05:23:09.944Z,8.30
2022-09-28T05:25:36.661Z,8.30
2022-09-28T05:28:03.415Z,8.30
2022-09-28T05:30:30.096Z,8.30
2022-09-28T05:32:56.859Z,8.30
2022-09-28T05:35:23.423Z,8.30
2022-09-28T05:37:50.127Z,8.30
2022-09-28T05:40:17.103Z,8.30
2022-09-28T05:42:43.717Z,8.30
2022-09-28T05:45:10.717Z,8.30
2022-09-28T05:47:39.639Z,8.30
2022-09-28T05:50:07.666Z,8.30
2022-09-28T05:52:34.286Z,8.20
2022-09-28T05:55:02.336Z,8.30
2022-09-28T05:57:29.949Z,8.20
2022-09-28T05:59:56.593Z,8.30
2022-09-28T06:02:23.472Z,8.30
2022-09-28T06:04:51.121Z,8.30
2022-09-28T06:07:18.251Z,8.30
2022-09-28T06:09:44.856Z,8.30
2022-09-28T06:12:11.418Z,8.30
2022-09-28T06:14:38.835Z,8.30
2022-09-28T06:17:05.497Z,8.30
2022-09-28T06:19:32.081Z,8.30
2022-09-28T06:21:59.451Z,8.30
2022-09-28T06:24:28.202Z,8.30
2022-09-28T06:26:57.794Z,8.30
2022-09-28T06:29:24.452Z,8.40
2022-09-28T06:31:51.503Z,8.50
2022-09-28T06:34:18.972Z,8.50
2022-09-28T06:36:45.791Z,8.50
2022-09-28T06:39:12.364Z,8.60
2022-09-28T06:41:39.849Z,8.60
2022-09-28T06:44:06.442Z,8.60
2022-09-28T06:46:33.107Z,8.60
2022-09-28T06:48:59.746Z,8.60
2022-09-28T06:51:26.320Z,8.60
2022-09-28T06:53:53.880Z,8.70
2022-09-28T06:56:21.043Z,8.80
2022-09-28T06:58:48.256Z,8.80
2022-09-28T07:01:14.925Z,8.80
2022-09-28T07:03:41.646Z,8.90
2022-09-28T07:06:11.447Z,9.00
2022-09-28T07:08:38.741Z,9.00
2022-09-28T07:11:06.783Z,8.90
2022-09-28T07:13:49.672Z,8.90
2022-09-28T07:16:19.630Z,8.90
2022-09-28T07:18:48.215Z,8.80
2022-09-28T07:21:25.878Z,8.90
2022-09-28T07:23:56.268Z,9.00
2022-09-28T07:26:24.540Z,9.10
2022-09-28T07:28:51.730Z,9.10
2022-09-28T07:31:18.380Z,9.20
2022-09-28T07:33:47.038Z,9.20
2022-09-28T07:36:14.127Z,9.30
2022-09-28T07:38:41.306Z,9.30
2022-09-28T07:41:11.422Z,9.30
2022-09-28T07:43:39.915Z,9.20
2022-09-28T07:46:12.155Z,9.10
2022-09-28T07:48:40.909Z,9.20
2022-09-28T07:51:08.797Z,9.30
2022-09-28T07:53:36.049Z,9.40
2022-09-28T07:56:08.577Z,9.30
2022-09-28T07:58:36.761Z,9.30
2022-09-28T08:01:06.382Z,9.30
2022-09-28T08:03:33.584Z,9.30
2022-09-28T08:06:03.496Z,9.30
2022-09-28T08:08:31.518Z,9.30
2022-09-28T08:10:58.304Z,9.30
2022-09-28T08:13:27.118Z,9.30
2022-09-28T08:15:54.478Z,9.40
2022-09-28T08:18:21.667Z,9.40
2022-09-28T08:21:10.006Z,9.60
2022-09-28T08:23:38.217Z,9.70
2022-09-28T08:26:06.623Z,9.70
2022-09-28T08:28:35.053Z,9.70
2022-09-28T08:31:01.961Z,9.80
2022-09-28T08:33:29.235Z,10.00
2022-09-28T08:35:57.809Z,10.20
2022-09-28T08:38:26.579Z,10.30
2022-09-28T08:41:17.023Z,10.90
2022-09-28T08:44:14.369Z,11.80
2022-09-28T08:46:46.592Z,12.10
2022-09-28T08:49:45.153Z,11.80
2022-09-28T08:52:25.872Z,11.50
2022-09-28T08:55:26.362Z,11.00
2022-09-28T08:58:13.536Z,10.90
2022-09-28T09:00:50.683Z,10.90
2022-09-28T09:03:22.371Z,10.90
2022-09-28T09:05:58.316Z,10.90
2022-09-28T09:08:50.013Z,11.00
2022-09-28T09:11:28.926Z,11.10
2022-09-28T09:14:01.100Z,11.50
2022-09-28T09:16:59.955Z,11.90
2022-09-28T09:19:41.001Z,12.30
2022-09-28T09:22:26.027Z,12.30
2022-09-28T09:25:16.219Z,12.90
2022-09-28T09:27:42.822Z,13.50
2022-09-28T09:30:20.568Z,13.20
2022-09-28T09:33:24.954Z,13.20
2022-09-28T09:36:10.538Z,12.90
2022-09-28T09:39:10.510Z,13.00
2022-09-28T09:41:40.177Z,12.90
2022-09-28T09:44:28.090Z,12.50
2022-09-28T09:47:13.408Z,12.10
2022-09-28T09:49:47.062Z,11.60
2022-09-28T09:52:41.102Z,11.20
2022-09-28T09:55:10.359Z,11.00
2022-09-28T09:57:51.112Z,10.90
2022-09-28T10:00:18.606Z,11.10
2022-09-28T10:02:48.044Z,11.30
2022-09-28T10:05:30.666Z,11.60
2022-09-28T10:08:25.392Z,12.40
2022-09-28T10:11:02.394Z,13.00
2022-09-28T10:13:29.235Z,12.90
2022-09-28T10:15:56.228Z,12.60
2022-09-28T10:18:23.230Z,12.60
2022-09-28T10:20:49.875Z,12.40
2022-09-28T10:23:25.433Z,12.20
2022-09-28T10:25:57.016Z,12.10
2022-09-28T10:28:35.282Z,12.10
2022-09-28T10:31:39.062Z,12.20
2022-09-28T10:34:07.633Z,12.30
2022-09-28T10:36:58.269Z,12.40
2022-09-28T10:39:27.941Z,12.20
2022-09-28T10:41:54.973Z,12.30
2022-09-28T10:44:22.821Z,12.60
2022-09-28T10:47:17.686Z,13.00
2022-09-28T10:49:48.296Z,13.30
2022-09-28T10:52:42.501Z,13.60
2022-09-28T10:55:21.297Z,13.70
2022-09-28T10:57:48.304Z,13.70
2022-09-28T11:00:33.810Z,13.40
2022-09-28T11:03:02.256Z,13.20
2022-09-28T11:05:29.992Z,13.20
2022-09-28T11:07:59.991Z,13.30
2022-09-28T11:10:29.532Z,13.20
2022-09-28T11:12:57.402Z,13.20
2022-09-28T11:15:32.426Z,13.30
2022-09-28T11:18:34.457Z,13.30
2022-09-28T11:21:15.297Z,13.20
2022-09-28T11:23:54.558Z,13.20
2022-09-28T11:26:21.882Z,13.00
2022-09-28T11:28:52.738Z,12.80
2022-09-28T11:31:29.247Z,12.80
2022-09-28T11:34:13.878Z,12.90
2022-09-28T11:37:06.629Z,13.10
2022-09-28T11:39:47.098Z,13.30
2022-09-28T11:42:31.591Z,13.40
2022-09-28T11:45:25.940Z,13.30
2022-09-28T11:48:09.103Z,13.10
2022-09-28T11:51:00.057Z,12.80
2022-09-28T11:53:35.434Z,12.50
2022-09-28T11:56:28.992Z,12.40
2022-09-28T11:59:00.301Z,12.30
2022-09-28T12:01:35.642Z,12.30
2022-09-28T12:04:16.174Z,12.40
2022-09-28T12:07:25.637Z,12.50
2022-09-28T12:10:19.988Z,12.80
2022-09-28T12:13:01.041Z,12.90
2022-09-28T12:16:12.903Z,13.00
2022-09-28T12:18:50.305Z,12.80
2022-09-28T12:21:52.901Z,12.70
2022-09-28T12:24:33.221Z,12.50
2022-09-28T12:27:12.063Z,12.40
2022-09-28T12:29:48.145Z,12.20
2022-09-28T12:32:37.361Z,12.10
2022-09-28T12:35:16.064Z,12.00
2022-09-28T12:38:11.102Z,11.90
2022-09-28T12:40:56.764Z,11.90
2022-09-28T12:43:49.369Z,12.10
2022-09-28T12:46:51.054Z,13.10
2022-09-28T12:50:36.602Z,13.90
2022-09-28T12:52:43.307Z,14.30
2022-09-28T12:55:19.168Z,14.10
2022-09-28T12:58:08.689Z,14.10
2022-09-28T13:01:13.696Z,13.80
2022-09-28T13:03:51.982Z,13.40
2022-09-28T13:06:34.532Z,13.20
2022-09-28T13:09:21.697Z,12.80
2022-09-28T13:11:54.663Z,12.60
2022-09-28T13:14:38.184Z,12.60
2022-09-28T13:17:18.799Z,12.60
2022-09-28T13:19:58.986Z,12.50
2022-09-28T13:22:44.484Z,12.50
2022-09-28T13:26:23.619Z,12.40
2022-09-28T13:28:54.599Z,12.50
2022-09-28T13:31:30.887Z,12.50
2022-09-28T13:34:03.157Z,12.60
2022-09-28T13:36:30.429Z,12.80
2022-09-28T13:39:00.925Z,12.90
2022-09-28T13:41:37.763Z,13.00
2022-09-28T13:44:20.878Z,13.00
2022-09-28T13:46:56.337Z,13.10
2022-09-28T13:49:45.429Z,13.10
2022-09-28T13:52:30.220Z,13.00
2022-09-28T13:55:18.103Z,13.10
2022-09-28T13:57:57.283Z,13.20
2022-09-28T14:00:32.028Z,13.50
2022-09-28T14:03:13.176Z,13.60
2022-09-28T14:06:20.225Z,13.50
2022-09-28T14:08:59.077Z,13.50
2022-09-28T14:11:34.803Z,13.30
2022-09-28T14:14:05.444Z,13.20
2022-09-28T14:16:34.151Z,13.00
2022-09-28T14:19:07.183Z,12.90
2022-09-28T14:22:02.555Z,12.60
2022-09-28T14:24:37.910Z,12.50
2022-09-28T14:27:42.219Z,12.50
2022-09-28T14:30:11.919Z,12.50
2022-09-28T14:32:41.099Z,12.70
2022-09-28T14:35:27.398Z,12.70
2022-09-28T14:38:23.613Z,12.70
2022-09-28T14:41:12.601Z,12.80
2022-09-28T14:43:45.456Z,12.80
2022-09-28T14:46:15.247Z,12.80
2022-09-28T14:48:55.981Z,12.80
2022-09-28T14:51:33.002Z,12.70
2022-09-28T14:54:04.652Z,12.50
2022-09-28T14:56:42.344Z,12.40
2022-09-28T14:59:16.945Z,12.30
2022-09-28T15:01:53.207Z,12.20
2022-09-28T15:04:20.685Z,12.30
2022-09-28T15:06:50.423Z,12.40
2022-09-28T15:09:29.919Z,12.40
2022-09-28T15:12:29.926Z,12.40
2022-09-28T15:14:59.354Z,12.20
2022-09-28T15:17:37.059Z,12.30
2022-09-28T15:20:20.989Z,12.30
2022-09-28T15:22:49.587Z,12.20
2022-09-28T15:25:21.504Z,12.10
2022-09-28T15:27:54.170Z,12.00
2022-09-28T15:30:32.375Z,12.00
2022-09-28T15:33:20.065Z,11.90
2022-09-28T15:36:02.960Z,11.90
2022-09-28T15:38:32.351Z,12.00
2022-09-28T15:41:02.743Z,11.90
2022-09-28T15:43:37.036Z,11.90
2022-09-28T15:46:13.344Z,12.00
2022-09-28T15:48:56.530Z,12.00
2022-09-28T15:51:28.296Z,12.00
2022-09-28T15:54:02.836Z,11.90
2022-09-28T15:56:30.956Z,11.90
2022-09-28T15:59:16.144Z,11.90
2022-09-28T16:01:43.908Z,11.90
2022-09-28T16:04:38.426Z,11.90
2022-09-28T16:07:11.832Z,12.00
2022-09-28T16:10:13.622Z,12.00
2022-09-28T16:12:40.163Z,11.90
2022-09-28T16:15:27.954Z,11.90
2022-09-28T16:18:02.501Z,11.90
2022-09-28T16:20:41.665Z,11.80
2022-09-28T16:23:09.697Z,11.80
2022-09-28T16:25:38.952Z,11.80
2022-09-28T16:28:06.908Z,11.70
2022-09-28T16:30:34.710Z,11.50
2022-09-28T16:33:28.314Z,11.30
2022-09-28T16:35:54.996Z,11.10
2022-09-28T16:38:21.731Z,11.10
2022-09-28T16:40:50.617Z,11.00
2022-09-28T16:43:30.991Z,11.00
2022-09-28T16:46:00.683Z,11.00
2022-09-28T16:48:29.753Z,11.00
2022-09-28T16:50:57.756Z,11.00
2022-09-28T16:53:43.337Z,11.10
2022-09-28T16:56:11.244Z,11.00
2022-09-28T16:58:38.935Z,10.80
2022-09-28T17:01:09.469Z,10.80
2022-09-28T17:03:36.157Z,10.70
2022-09-28T17:06:05.993Z,10.60
2022-09-28T17:08:33.638Z,10.60
2022-09-28T17:11:18.139Z,10.50
2022-09-28T17:13:49.274Z,10.40
2022-09-28T17:16:18.527Z,10.30
2022-09-28T17:18:46.078Z,10.20
2022-09-28T17:21:18.430Z,10.10
2022-09-28T17:23:46.754Z,10.00
2022-09-28T17:26:27.790Z,10.00
2022-09-28T17:28:54.616Z,9.90
2022-09-28T17:31:21.295Z,9.80
2022-09-28T17:33:47.908Z,9.80
2022-09-28T17:36:17.183Z,9.70
2022-09-28T17:38:45.223Z,9.70
2022-09-28T17:41:18.076Z,9.70
2022-09-28T17:43:46.924Z,9.70
2022-09-28T17:46:37.252Z,9.60
2022-09-28T17:49:05.762Z,9.70
2022-09-28T17:51:34.837Z,9.60
2022-09-28T17:54:02.594Z,9.60
2022-09-28T17:56:32.497Z,9.60
2022-09-28T17:59:03.154Z,9.50
2022-09-28T18:01:34.409Z,9.60
2022-09-28T18:04:03.373Z,9.50
2022-09-28T18:06:30.153Z,9.50
2022-09-28T18:08:59.854Z,9.50
2022-09-28T18:11:26.722Z,9.40
2022-09-28T18:13:53.415Z,9.40
2022-09-28T18:16:20.433Z,9.40
2022-09-28T18:18:47.839Z,9.40
2022-09-28T18:21:22.918Z,9.30
2022-09-28T18:29:33.053Z,9.20
2022-09-28T18:32:00.472Z,9.20
2022-09-28T18:34:27.064Z,9.20
2022-09-28T18:36:53.666Z,9.20
2022-09-28T18:39:20.554Z,9.20
2022-09-28T18:41:47.287Z,9.20
2022-09-28T18:44:13.929Z,9.20
2022-09-28T18:46:42.543Z,9.20
2022-09-28T18:49:09.327Z,9.20
2022-09-28T18:51:36.228Z,9.20
2022-09-28T18:54:07.443Z,9.20
2022-09-28T18:56:38.256Z,9.20
2022-09-28T18:59:33.133Z,9.20
2022-09-28T19:02:01.650Z,9.20
2022-09-28T19:04:28.501Z,9.20
2022-09-28T19:06:55.550Z,9.10
2022-09-28T19:09:24.721Z,9.10
2022-09-28T19:11:51.484Z,9.00
2022-09-28T19:14:18.328Z,9.10
2022-09-28T19:16:45.797Z,9.10
2022-09-28T19:19:14.434Z,9.10
2022-09-28T19:21:43.259Z,9.20
2022-09-28T19:24:14.655Z,9.20
2022-09-28T19:26:42.203Z,9.20
2022-09-28T19:29:10.529Z,9.10
2022-09-28T19:31:37.971Z,9.20
2022-09-28T19:34:05.722Z,9.20
2022-09-28T19:36:33.306Z,9.10
2022-09-28T19:39:03.261Z,9.10
2022-09-28T19:41:44.835Z,9.00
2022-09-28T19:44:27.413Z,9.10
2022-09-28T19:46:56.360Z,9.00
2022-09-28T19:49:25.223Z,9.00
2022-09-28T19:52:12.258Z,8.90
2022-09-28T19:54:39.921Z,9.00
2022-09-28T19:57:08.367Z,9.10
2022-09-28T19:59:37.157Z,9.10
2022-09-28T20:02:05.881Z,9.10
2022-09-28T20:04:32.682Z,9.10
2022-09-28T20:06:59.685Z,9.10
2022-09-28T20:09:26.344Z,9.00
2022-09-28T20:11:53.426Z,9.00
2022-09-28T20:14:22.391Z,9.00
2022-09-28T20:16:51.242Z,9.00
2022-09-28T20:19:21.074Z,8.90
2022-09-28T20:21:48.460Z,8.80
2022-09-28T20:24:17.143Z,8.70
2022-09-28T20:26:45.708Z,8.60
2022-09-28T20:29:12.895Z,8.70
2022-09-28T20:31:39.683Z,8.60
2022-09-28T20:34:07.045Z,8.70
2022-09-28T20:36:34.223Z,8.60
2022-09-28T20:39:02.012Z,8.60
2022-09-28T20:41:35.626Z,8.60
2022-09-28T20:44:05.984Z,8.60
2022-09-28T20:46:34.866Z,8.60
2022-09-28T20:49:01.836Z,8.70
2022-09-28T20:51:28.596Z,8.70
2022-09-28T20:53:57.517Z,8.70
2022-09-28T20:56:26.638Z,8.70
2022-09-28T20:58:54.377Z,8.70
2022-09-28T21:01:23.659Z,8.70
2022-09-28T21:03:55.907Z,8.70
2022-09-28T21:06:30.893Z,8.80
2022-09-28T21:08:58.526Z,8.70
2022-09-28T21:11:27.379Z,8.70
2022-09-28T21:13:56.550Z,8.80
2022-09-28T21:16:23.435Z,8.80
2022-09-28T21:18:50.069Z,8.70
2022-09-28T21:21:19.063Z,8.70
2022-09-28T21:23:46.135Z,8.60
2022-09-28T21:26:24.838Z,8.70
2022-09-28T21:29:02.641Z,8.60
2022-09-28T21:31:32.842Z,8.70
2022-09-28T21:33:59.638Z,8.70
2022-09-28T21:36:26.295Z,8.70
2022-09-28T21:38:54.989Z,8.60
2022-09-28T21:41:21.929Z,8.60
2022-09-28T21:43:49.642Z,8.60
2022-09-28T21:46:17.619Z,8.70
2022-09-28T21:48:44.515Z,8.70
2022-09-28T21:51:14.183Z,8.70
2022-09-28T21:53:40.836Z,8.80
2022-09-28T21:56:10.356Z,8.70
2022-09-28T21:58:37.597Z,8.70
2022-09-28T22:01:07.114Z,8.70
2022-09-28T22:03:35.754Z,8.70
2022-09-28T22:06:03.592Z,8.70
2022-09-28T22:08:30.520Z,8.70
2022-09-28T22:11:01.823Z,8.70
2022-09-28T22:13:29.688Z,8.70
2022-09-28T22:15:58.636Z,8.70
2022-09-28T22:18:27.163Z,8.70
2022-09-28T22:21:09.009Z,8.50
2022-09-28T22:23:37.136Z,8.60
2022-09-28T22:26:11.002Z,8.60
2022-09-28T22:28:39.152Z,8.70
2022-09-28T22:31:06.265Z,8.70
2022-09-28T22:33:34.013Z,8.60
2022-09-28T22:36:00.753Z,8.60
2022-09-28T22:38:28.070Z,8.60
2022-09-28T22:40:56.198Z,8.70
2022-09-28T22:43:24.525Z,8.70
2022-09-28T22:46:10.317Z,8.70
2022-09-28T22:48:37.682Z,8.60
2022-09-28T22:51:06.143Z,8.60
2022-09-28T22:53:33.814Z,8.60
2022-09-28T22:56:01.531Z,8.60
2022-09-28T22:58:28.261Z,8.60
2022-09-28T23:00:56.956Z,8.60
2022-09-28T23:03:23.937Z,8.60
2022-09-28T23:05:54.831Z,8.50
2022-09-28T23:08:22.160Z,8.50
2022-09-28T23:10:50.882Z,8.50
2022-09-28T23:13:18.256Z,8.60
2022-09-28T23:16:01.214Z,8.50
2022-09-28T23:18:30.053Z,8.50
2022-09-28T23:21:05.815Z,8.40
2022-09-28T23:23:32.945Z,8.30
2022-09-28T23:25:59.962Z,8.20
2022-09-28T23:28:27.236Z,8.10
2022-09-28T23:30:54.345Z,8.00
2022-09-28T23:33:21.976Z,8.00
2022-09-28T23:35:49.308Z,8.00
2022-09-28T23:38:20.601Z,7.90
2022-09-28T23:40:47.884Z,7.90
2022-09-28T23:43:15.226Z,7.80
2022-09-28T23:45:45.532Z,7.80
2022-09-28T23:48:14.867Z,7.80
2022-09-28T23:50:43.137Z,7.80
2022-09-28T23:53:11.740Z,7.70
2022-09-28T23:55:38.385Z,7.70
2022-09-28T23:58:05.093Z,7.60
